createdAt,value
2018-07-14T00:00:26.230Z,62.89
2018-07-14T00:02:55.796Z,63.53
2018-07-14T00:05:25.103Z,63.75
2018-07-14T00:07:54.473Z,63.12
2018-07-14T00:10:23.866Z,63.49
2018-07-14T00:12:53.322Z,63.41
2018-07-14T00:15:22.695Z,63.60
2018-07-14T00:17:52.098Z,64.80
2018-07-14T00:20:21.484Z,63.83
2018-07-14T00:22:50.934Z,63.85
2018-07-14T00:25:25.289Z,64.82
2018-07-14T00:27:54.750Z,63.91
2018-07-14T00:30:24.205Z,63.91
2018-07-14T00:32:53.618Z,64.44
2018-07-14T00:35:22.973Z,65.25
2018-07-14T00:37:52.464Z,64.12
2018-07-14T00:40:21.807Z,64.86
2018-07-14T00:42:51.440Z,65.66
2018-07-14T00:45:20.801Z,65.45
2018-07-14T00:47:50.233Z,65.00
2018-07-14T00:50:19.649Z,64.02
2018-07-14T00:52:49.097Z,64.18
2018-07-14T00:55:18.462Z,62.87
2018-07-14T00:57:48.155Z,63.13
2018-07-14T01:00:17.556Z,63.34
2018-07-14T01:02:47.469Z,63.63
2018-07-14T01:05:16.863Z,63.12
2018-07-14T01:07:46.275Z,62.76
2018-07-14T01:10:15.731Z,62.89
2018-07-14T01:12:45.182Z,63.90
2018-07-14T01:15:14.566Z,63.40
2018-07-14T01:17:43.993Z,63.71
2018-07-14T01:20:13.429Z,63.26
2018-07-14T01:22:42.882Z,62.95
2018-07-14T01:25:12.325Z,62.19
2018-07-14T01:27:42.089Z,63.80
2018-07-14T01:30:11.732Z,62.76
2018-07-14T01:32:41.157Z,62.93
2018-07-14T01:35:10.532Z,63.06
2018-07-14T01:37:39.989Z,61.95
2018-07-14T01:40:09.342Z,62.69
2018-07-14T01:42:39.134Z,62.31
2018-07-14T01:45:08.530Z,62.48
2018-07-14T01:47:37.960Z,62.52
2018-07-14T01:50:07.520Z,62.63
2018-07-14T01:52:36.944Z,61.93
2018-07-14T01:55:06.340Z,61.83
2018-07-14T01:57:35.699Z,60.98
2018-07-14T02:00:05.151Z,61.80
2018-07-14T02:02:34.568Z,62.12
2018-07-14T02:05:03.950Z,62.01
2018-07-14T02:07:33.344Z,62.04
2018-07-14T02:10:02.749Z,61.75
2018-07-14T02:12:32.256Z,61.64
2018-07-14T02:15:02.001Z,61.33
2018-07-14T02:17:31.581Z,61.83
2018-07-14T02:20:01.306Z,61.74
2018-07-14T02:22:30.789Z,62.02
2018-07-14T02:25:00.298Z,62.57
2018-07-14T02:27:29.806Z,62.51
2018-07-14T02:29:59.615Z,63.49
2018-07-14T02:32:29.094Z,62.75
2018-07-14T02:34:58.574Z,63.36
2018-07-14T02:37:27.996Z,62.50
2018-07-14T02:39:57.439Z,63.26
2018-07-14T02:42:26.808Z,62.67
2018-07-14T02:44:56.228Z,62.05
2018-07-14T02:47:25.595Z,62.15
2018-07-14T02:49:54.964Z,62.81
2018-07-14T02:52:24.404Z,63.37
2018-07-14T02:54:53.900Z,63.39
2018-07-14T02:57:23.261Z,62.59
2018-07-14T02:59:52.778Z,63.42
2018-07-14T03:02:22.118Z,63.72
2018-07-14T03:04:51.514Z,63.40
2018-07-14T03:07:21.441Z,64.19
2018-07-14T03:09:50.839Z,64.45
2018-07-14T03:12:20.209Z,64.99
2018-07-14T03:14:49.594Z,64.63
2018-07-14T03:17:18.991Z,64.91
2018-07-14T03:19:48.497Z,65.36
2018-07-14T03:22:18.000Z,65.85
2018-07-14T03:24:47.428Z,65.14
2018-07-14T03:27:16.870Z,66.08
2018-07-14T03:29:46.356Z,66.51
2018-07-14T03:32:15.737Z,66.12
2018-07-14T03:34:45.188Z,65.34
2018-07-14T03:37:14.521Z,65.27
2018-07-14T03:39:43.928Z,65.81
2018-07-14T03:42:13.312Z,64.58
2018-07-14T03:44:42.852Z,64.84
2018-07-14T03:47:12.225Z,64.20
2018-07-14T03:49:41.617Z,65.20
2018-07-14T03:52:11.015Z,63.85
2018-07-14T03:54:40.395Z,64.90
2018-07-14T03:57:09.782Z,65.84
2018-07-14T03:59:39.184Z,65.79
2018-07-14T04:02:08.614Z,64.58
2018-07-14T04:04:38.082Z,65.56
2018-07-14T04:07:07.421Z,64.66
2018-07-14T04:09:36.795Z,65.47
2018-07-14T04:12:06.535Z,65.48
2018-07-14T04:14:35.950Z,65.50
2018-07-14T04:17:05.549Z,66.58
2018-07-14T04:19:34.939Z,65.82
2018-07-14T04:22:04.326Z,67.13
2018-07-14T04:24:33.735Z,67.45
2018-07-14T04:27:03.257Z,67.67
2018-07-14T04:29:32.721Z,66.64
2018-07-14T04:32:02.628Z,67.15
2018-07-14T04:34:32.002Z,67.09
2018-07-14T04:37:01.448Z,66.69
2018-07-14T04:39:30.588Z,66.91
2018-07-14T04:42:00.053Z,66.38
2018-07-14T04:44:29.604Z,65.57
2018-07-14T04:46:59.114Z,65.25
2018-07-14T04:49:28.560Z,64.89
2018-07-14T04:51:58.047Z,65.41
2018-07-14T04:54:27.443Z,64.79
2018-07-14T04:56:56.902Z,64.63
2018-07-14T04:59:26.286Z,64.70
2018-07-14T05:01:55.636Z,63.78
2018-07-14T05:04:25.092Z,64.49
2018-07-14T05:06:54.722Z,64.12
2018-07-14T05:09:24.115Z,63.41
2018-07-14T05:11:53.472Z,64.92
2018-07-14T05:14:23.507Z,64.35
2018-07-14T05:16:52.875Z,63.32
2018-07-14T05:19:22.231Z,63.47
2018-07-14T05:21:51.755Z,61.91
2018-07-14T05:24:21.206Z,61.75
2018-07-14T05:26:50.652Z,61.01
2018-07-14T05:29:20.037Z,61.25
2018-07-14T05:31:49.437Z,60.33
2018-07-14T05:34:18.973Z,60.74
2018-07-14T05:36:48.436Z,60.94
2018-07-14T05:39:17.876Z,60.14
2018-07-14T05:41:47.317Z,60.43
2018-07-14T05:44:16.823Z,59.56
2018-07-14T05:46:46.284Z,60.13
2018-07-14T05:49:15.832Z,60.98
2018-07-14T05:51:46.199Z,61.32
2018-07-14T05:54:16.433Z,61.24
2018-07-14T05:56:46.309Z,60.74
2018-07-14T05:59:17.526Z,60.89
2018-07-14T06:01:46.957Z,60.32
2018-07-14T06:04:16.466Z,59.64
2018-07-14T06:06:46.469Z,61.07
2018-07-14T06:09:16.362Z,60.08
2018-07-14T06:11:45.782Z,60.57
2018-07-14T06:14:15.264Z,60.20
2018-07-14T06:16:44.886Z,59.85
2018-07-14T06:19:14.371Z,60.03
2018-07-14T06:21:43.775Z,60.59
2018-07-14T06:24:13.216Z,59.24
2018-07-14T06:26:42.564Z,60.21
2018-07-14T06:29:11.939Z,60.22
2018-07-14T06:31:41.324Z,60.31
2018-07-14T06:34:11.124Z,60.02
2018-07-14T06:36:40.910Z,59.58
2018-07-14T06:39:10.374Z,60.71
2018-07-14T06:41:39.820Z,60.57
2018-07-14T06:44:09.479Z,60.02
2018-07-14T06:46:38.905Z,60.78
2018-07-14T06:49:08.403Z,60.74
2018-07-14T06:51:38.398Z,59.71
2018-07-14T06:54:07.773Z,60.00
2018-07-14T06:56:37.303Z,60.84
2018-07-14T06:59:06.762Z,59.56
2018-07-14T07:01:36.232Z,58.87
2018-07-14T07:04:05.671Z,58.49
2018-07-14T07:06:35.083Z,58.09
2018-07-14T07:09:05.200Z,57.22
2018-07-14T07:11:34.632Z,58.46
2018-07-14T07:14:04.358Z,58.00
2018-07-14T07:16:33.974Z,56.67
2018-07-14T07:19:03.498Z,56.86
2018-07-14T07:21:33.143Z,56.69
2018-07-14T07:24:02.705Z,56.46
2018-07-14T07:26:32.136Z,56.58
2018-07-14T07:29:01.815Z,57.31
2018-07-14T07:31:32.243Z,55.22
2018-07-14T07:34:01.768Z,55.35
2018-07-14T07:36:31.662Z,54.92
2018-07-14T07:39:01.091Z,54.74
2018-07-14T07:41:30.537Z,53.95
2018-07-14T07:43:59.890Z,54.18
2018-07-14T07:46:29.434Z,54.77
2018-07-14T07:48:59.150Z,54.57
2018-07-14T07:51:28.627Z,53.04
2018-07-14T07:53:58.055Z,52.90
2018-07-14T07:56:27.516Z,52.76
2018-07-14T07:58:56.984Z,51.59
2018-07-14T08:01:26.434Z,51.78
2018-07-14T08:03:55.842Z,52.91
2018-07-14T08:06:25.202Z,51.27
2018-07-14T08:08:54.621Z,49.26
2018-07-14T08:11:24.048Z,47.33
2018-07-14T08:13:53.516Z,47.95
2018-07-14T08:16:23.493Z,48.08
2018-07-14T08:18:52.920Z,48.75
2018-07-14T08:21:22.432Z,48.05
2018-07-14T08:23:53.246Z,48.44
2018-07-14T08:26:22.865Z,49.30
2018-07-14T08:28:52.203Z,48.40
2018-07-14T08:31:24.020Z,47.27
2018-07-14T08:33:53.502Z,47.06
2018-07-14T08:36:23.000Z,45.88
2018-07-14T08:38:53.235Z,46.89
2018-07-14T08:41:22.636Z,46.26
2018-07-14T08:43:52.165Z,45.78
2018-07-14T08:46:21.462Z,48.85
2018-07-14T08:48:50.873Z,49.26
2018-07-14T08:51:20.289Z,47.31
2018-07-14T08:53:49.645Z,48.95
2018-07-14T08:56:19.102Z,48.30
2018-07-14T08:58:48.544Z,49.31
2018-07-14T09:01:18.825Z,48.06
2018-07-14T09:03:48.236Z,47.07
2018-07-14T09:06:17.672Z,44.97
2018-07-14T09:08:47.112Z,43.63
2018-07-14T09:11:16.537Z,44.31
2018-07-14T09:13:45.885Z,45.54
2018-07-14T09:16:15.323Z,45.61
2018-07-14T09:18:44.706Z,44.40
2018-07-14T09:21:14.192Z,43.75
2018-07-14T09:23:43.706Z,45.03
2018-07-14T09:26:13.211Z,46.89
2018-07-14T09:28:42.555Z,46.21
2018-07-14T09:31:11.989Z,46.00
2018-07-14T09:33:41.529Z,44.25
2018-07-14T09:36:10.947Z,42.44
2018-07-14T09:38:43.306Z,45.74
2018-07-14T09:41:12.715Z,45.33
2018-07-14T09:43:42.336Z,44.67
2018-07-14T09:46:11.783Z,47.42
2018-07-14T09:48:41.207Z,47.31
2018-07-14T09:51:10.752Z,50.05
2018-07-14T09:53:40.149Z,43.90
2018-07-14T09:56:09.490Z,43.71
2018-07-14T09:58:38.849Z,45.48
2018-07-14T10:01:09.846Z,43.94
2018-07-14T10:03:39.944Z,42.86
2018-07-14T10:06:09.324Z,44.91
2018-07-14T10:08:38.723Z,43.23
2018-07-14T10:11:08.122Z,45.34
2018-07-14T10:13:37.540Z,43.54
2018-07-14T10:16:06.897Z,44.02
2018-07-14T10:18:36.322Z,43.72
2018-07-14T10:21:05.729Z,44.97
2018-07-14T10:23:35.121Z,42.62
2018-07-14T10:26:04.518Z,43.37
2018-07-14T10:28:33.962Z,45.20
2018-07-14T10:31:03.363Z,46.16
2018-07-14T10:33:32.880Z,44.90
2018-07-14T10:36:02.253Z,46.27
2018-07-14T10:38:31.720Z,46.33
2018-07-14T10:41:01.308Z,47.20
2018-07-14T10:43:31.062Z,48.06
2018-07-14T10:46:01.092Z,47.84
2018-07-14T10:48:30.668Z,48.21
2018-07-14T10:51:00.106Z,48.48
2018-07-14T10:53:29.623Z,49.84
2018-07-14T10:55:59.429Z,47.49
2018-07-14T10:58:28.973Z,47.70
2018-07-14T11:00:58.549Z,49.89
2018-07-14T11:03:28.052Z,49.04
2018-07-14T11:05:57.584Z,49.52
2018-07-14T11:08:26.940Z,50.02
2018-07-14T11:10:56.328Z,50.07
2018-07-14T11:13:25.739Z,48.76
2018-07-14T11:15:55.170Z,48.69
2018-07-14T11:18:24.616Z,48.99
2018-07-14T11:20:54.039Z,50.00
2018-07-14T11:23:23.460Z,49.13
2018-07-14T11:25:52.886Z,48.67
2018-07-14T11:28:22.878Z,49.89
2018-07-14T11:30:52.299Z,49.69
2018-07-14T11:33:21.735Z,49.91
2018-07-14T11:35:51.129Z,49.48
2018-07-14T11:38:20.538Z,48.62
2018-07-14T11:40:50.039Z,50.35
2018-07-14T11:43:19.479Z,53.48
2018-07-14T11:45:48.979Z,55.53
2018-07-14T11:48:18.567Z,55.29
2018-07-14T11:50:47.979Z,54.55
2018-07-14T11:53:17.452Z,58.59
2018-07-14T11:55:46.899Z,61.55
2018-07-14T11:58:16.382Z,60.96
2018-07-14T12:00:45.849Z,63.20
2018-07-14T12:03:15.284Z,63.34
2018-07-14T12:05:44.794Z,62.50
2018-07-14T12:08:14.204Z,63.07
2018-07-14T12:10:43.645Z,63.84
2018-07-14T12:13:13.171Z,61.43
2018-07-14T12:15:42.825Z,56.06
2018-07-14T12:18:12.310Z,54.63
2018-07-14T12:20:41.793Z,51.67
2018-07-14T12:23:11.277Z,50.23
2018-07-14T12:25:40.832Z,49.00
2018-07-14T12:28:10.204Z,48.32
2018-07-14T12:30:39.687Z,48.58
2018-07-14T12:33:09.068Z,50.01
2018-07-14T12:35:38.638Z,45.33
2018-07-14T12:38:07.750Z,49.88
2018-07-14T12:40:38.561Z,49.99
2018-07-14T12:43:08.004Z,50.69
2018-07-14T12:45:37.369Z,48.22
2018-07-14T12:48:07.778Z,45.53
2018-07-14T12:50:37.181Z,45.02
2018-07-14T12:53:06.871Z,44.26
2018-07-14T12:55:36.337Z,46.32
2018-07-14T12:58:05.782Z,46.59
2018-07-14T13:00:35.174Z,46.03
2018-07-14T13:03:04.620Z,44.19
2018-07-14T13:05:34.310Z,44.84
2018-07-14T13:08:03.722Z,42.94
2018-07-14T13:10:33.787Z,43.36
2018-07-14T13:13:03.283Z,43.21
2018-07-14T13:15:32.815Z,42.48
2018-07-14T13:18:02.394Z,44.25
2018-07-14T13:20:31.910Z,43.45
2018-07-14T13:23:01.490Z,43.92
2018-07-14T13:25:31.028Z,42.69
2018-07-14T13:28:00.554Z,41.67
2018-07-14T13:30:30.187Z,43.33
2018-07-14T13:33:00.195Z,41.68
2018-07-14T13:35:29.629Z,41.38
2018-07-14T13:37:59.115Z,43.51
2018-07-14T13:40:28.628Z,44.03
2018-07-14T13:42:58.061Z,42.44
2018-07-14T13:45:27.635Z,41.71
2018-07-14T13:47:57.106Z,42.55
2018-07-14T13:50:26.518Z,44.35
2018-07-14T13:52:56.060Z,45.33
2018-07-14T13:55:25.479Z,43.05
2018-07-14T13:57:54.915Z,45.07
2018-07-14T14:00:24.306Z,43.84
2018-07-14T14:02:53.753Z,41.03
2018-07-14T14:05:23.154Z,42.97
2018-07-14T14:07:52.686Z,42.16
2018-07-14T14:10:22.037Z,42.61
2018-07-14T14:12:51.420Z,43.41
2018-07-14T14:15:20.899Z,43.85
2018-07-14T14:17:50.354Z,43.78
2018-07-14T14:20:19.813Z,43.93
2018-07-14T14:22:49.299Z,42.09
2018-07-14T14:25:18.829Z,44.15
2018-07-14T14:27:48.380Z,43.54
2018-07-14T14:30:17.899Z,44.76
2018-07-14T14:32:47.329Z,45.09
2018-07-14T14:35:16.688Z,46.87
2018-07-14T14:37:46.192Z,47.00
2018-07-14T14:40:15.723Z,47.25
2018-07-14T14:42:45.070Z,47.31
2018-07-14T14:45:15.397Z,47.31
2018-07-14T14:47:45.048Z,47.58
2018-07-14T14:50:14.586Z,48.18
2018-07-14T14:52:44.036Z,49.26
2018-07-14T14:55:13.465Z,49.16
2018-07-14T14:57:42.896Z,48.01
2018-07-14T15:00:12.292Z,48.37
2018-07-14T15:02:41.982Z,47.68
2018-07-14T15:05:11.497Z,47.56
2018-07-14T15:07:40.940Z,48.12
2018-07-14T15:10:10.470Z,49.00
2018-07-14T15:12:39.899Z,47.70
2018-07-14T15:15:09.323Z,49.10
2018-07-14T15:17:38.800Z,48.48
2018-07-14T15:20:08.670Z,48.36
2018-07-14T15:22:38.047Z,47.99
2018-07-14T15:25:07.825Z,49.02
2018-07-14T15:27:37.355Z,47.87
2018-07-14T15:30:08.304Z,48.20
2018-07-14T15:32:37.780Z,47.59
2018-07-14T15:35:07.395Z,48.65
2018-07-14T15:37:36.789Z,49.07
2018-07-14T15:40:06.286Z,47.84
2018-07-14T15:42:35.644Z,49.16
2018-07-14T15:45:05.047Z,48.40
2018-07-14T15:47:34.492Z,49.42
2018-07-14T15:50:03.964Z,49.64
2018-07-14T15:52:33.365Z,54.24
2018-07-14T15:55:02.913Z,56.09
2018-07-14T15:57:32.429Z,59.46
2018-07-14T16:00:01.778Z,60.01
2018-07-14T16:02:31.313Z,61.66
2018-07-14T16:05:01.066Z,64.25
2018-07-14T16:07:30.501Z,65.04
2018-07-14T16:10:00.047Z,65.92
2018-07-14T16:12:29.654Z,66.06
2018-07-14T16:14:59.188Z,66.92
2018-07-14T16:17:28.681Z,66.73
2018-07-14T16:19:58.206Z,65.12
2018-07-14T16:22:27.751Z,65.31
2018-07-14T16:24:57.200Z,65.95
2018-07-14T16:27:26.796Z,68.29
2018-07-14T16:29:56.264Z,68.87
2018-07-14T16:32:25.902Z,66.54
2018-07-14T16:34:55.308Z,66.20
2018-07-14T16:37:24.712Z,67.22
2018-07-14T16:39:54.115Z,70.18
2018-07-14T16:42:24.151Z,69.63
2018-07-14T16:44:54.490Z,66.35
2018-07-14T16:47:24.003Z,66.73
2018-07-14T16:49:53.412Z,65.47
2018-07-14T16:52:22.765Z,66.71
2018-07-14T16:54:52.139Z,66.05
2018-07-14T16:57:21.541Z,68.86
2018-07-14T16:59:51.010Z,69.98
2018-07-14T17:02:20.432Z,63.47
2018-07-14T17:04:49.885Z,64.00
2018-07-14T17:07:19.366Z,64.29
2018-07-14T17:09:48.878Z,65.09
2018-07-14T17:12:18.500Z,65.12
2018-07-14T17:14:47.871Z,66.58
2018-07-14T17:17:17.315Z,65.84
2018-07-14T17:19:47.221Z,64.67
2018-07-14T17:22:17.001Z,65.82
2018-07-14T17:24:46.652Z,64.88
2018-07-14T17:27:16.455Z,65.38
2018-07-14T17:29:45.843Z,65.87
2018-07-14T17:32:15.323Z,68.22
2018-07-14T17:34:44.750Z,64.98
2018-07-14T17:37:14.137Z,66.25
2018-07-14T17:39:43.658Z,65.85
2018-07-14T17:42:13.162Z,65.77
2018-07-14T17:44:42.569Z,66.75
2018-07-14T17:47:11.977Z,67.52
2018-07-14T17:49:41.370Z,66.94
2018-07-14T17:52:10.802Z,66.93
2018-07-14T17:54:40.184Z,66.59
2018-07-14T17:57:09.603Z,67.30
2018-07-14T17:59:40.030Z,67.04
2018-07-14T18:02:10.123Z,66.66
2018-07-14T18:04:39.709Z,67.03
2018-07-14T18:07:09.162Z,66.23
2018-07-14T18:09:38.542Z,66.88
2018-07-14T18:12:08.372Z,67.07
2018-07-14T18:14:37.765Z,67.17
2018-07-14T18:17:07.503Z,67.39
2018-07-14T18:19:36.934Z,67.44
2018-07-14T18:22:06.554Z,67.23
2018-07-14T18:24:36.158Z,66.86
2018-07-14T18:27:05.926Z,67.89
2018-07-14T18:29:35.349Z,68.92
2018-07-14T18:32:04.766Z,68.47
2018-07-14T18:34:34.200Z,69.67
2018-07-14T18:37:03.949Z,69.35
2018-07-14T18:39:33.361Z,68.80
2018-07-14T18:42:02.767Z,70.40
2018-07-14T18:44:32.182Z,71.41
2018-07-14T18:47:01.698Z,70.64
2018-07-14T18:49:32.074Z,71.82
2018-07-14T18:52:01.527Z,72.26
2018-07-14T18:54:31.152Z,72.55
2018-07-14T18:57:00.579Z,71.50
2018-07-14T18:59:30.058Z,72.67
2018-07-14T19:01:59.669Z,69.47
2018-07-14T19:04:29.163Z,71.50
2018-07-14T19:06:58.539Z,72.05
2018-07-14T19:09:28.028Z,72.15
2018-07-14T19:11:57.143Z,72.27
2018-07-14T19:14:26.549Z,73.03
2018-07-14T19:16:56.060Z,72.44
2018-07-14T19:19:25.582Z,72.93
2018-07-14T19:21:55.025Z,73.55
2018-07-14T19:24:24.513Z,73.85
2018-07-14T19:26:53.996Z,73.13
2018-07-14T19:29:23.497Z,74.11
2018-07-14T19:31:52.908Z,73.67
2018-07-14T19:34:22.337Z,74.33
2018-07-14T19:36:52.030Z,74.26
2018-07-14T19:39:21.413Z,75.42
2018-07-14T19:41:50.913Z,75.76
2018-07-14T19:44:20.449Z,75.29
2018-07-14T19:46:49.886Z,75.02
2018-07-14T19:49:19.279Z,76.00
2018-07-14T19:51:48.812Z,75.97
2018-07-14T19:54:18.329Z,75.96
2018-07-14T19:56:48.149Z,75.98
2018-07-14T19:59:17.616Z,75.07
2018-07-14T20:01:47.070Z,75.41
2018-07-14T20:04:16.413Z,76.24
2018-07-14T20:06:45.856Z,75.97
2018-07-14T20:09:15.235Z,75.29
2018-07-14T20:11:45.637Z,75.85
2018-07-14T20:14:15.033Z,76.49
2018-07-14T20:16:44.444Z,75.76
2018-07-14T20:19:13.880Z,76.29
2018-07-14T20:21:43.332Z,76.26
2018-07-14T20:24:12.731Z,75.50
2018-07-14T20:26:42.121Z,76.30
2018-07-14T20:29:11.589Z,76.56
2018-07-14T20:31:41.017Z,75.66
2018-07-14T20:34:10.729Z,75.93
2018-07-14T20:36:40.234Z,75.74
2018-07-14T20:39:09.686Z,75.09
2018-07-14T20:41:39.433Z,75.79
2018-07-14T20:44:08.985Z,74.48
2018-07-14T20:46:38.199Z,74.52
2018-07-14T20:49:07.817Z,73.96
2018-07-14T20:51:37.364Z,74.78
2018-07-14T20:54:07.814Z,73.93
2018-07-14T20:56:37.363Z,73.76
2018-07-14T20:59:06.993Z,73.09
2018-07-14T21:01:36.483Z,73.53
2018-07-14T21:04:06.063Z,73.67
2018-07-14T21:06:35.692Z,73.33
2018-07-14T21:09:05.227Z,74.00
2018-07-14T21:11:34.670Z,73.49
2018-07-14T21:14:04.438Z,72.75
2018-07-14T21:16:33.944Z,73.17
2018-07-14T21:19:03.559Z,72.98
2018-07-14T21:21:33.058Z,73.60
2018-07-14T21:24:02.225Z,72.59
2018-07-14T21:26:31.654Z,72.39
2018-07-14T21:29:01.092Z,73.00
2018-07-14T21:31:30.477Z,73.02
2018-07-14T21:33:59.890Z,73.76
2018-07-14T21:36:29.279Z,72.95
2018-07-14T21:38:59.379Z,73.70
2018-07-14T21:41:28.743Z,73.02
2018-07-14T21:43:58.305Z,72.75
2018-07-14T21:46:27.776Z,73.85
2018-07-14T21:48:57.171Z,73.45
2018-07-14T21:51:26.631Z,74.12
2018-07-14T21:53:56.059Z,73.23
2018-07-14T21:56:25.563Z,73.85
2018-07-14T21:58:54.974Z,74.04
2018-07-14T22:01:30.125Z,74.82
2018-07-14T22:04:00.249Z,74.19
2018-07-14T22:06:29.644Z,75.14
2018-07-14T22:08:59.137Z,75.44
2018-07-14T22:11:28.474Z,75.32
2018-07-14T22:13:57.922Z,75.02
2018-07-14T22:16:27.410Z,75.42
2018-07-14T22:18:56.905Z,75.12
2018-07-14T22:21:26.368Z,75.14
2018-07-14T22:23:55.821Z,75.27
2018-07-14T22:26:25.475Z,75.55
2018-07-14T22:28:54.962Z,75.44
2018-07-14T22:31:24.406Z,75.27
2018-07-14T22:33:53.856Z,76.56
2018-07-14T22:36:23.407Z,76.22
2018-07-14T22:38:52.575Z,75.51
2018-07-14T22:41:22.093Z,75.65
2018-07-14T22:43:51.505Z,76.34
2018-07-14T22:46:20.930Z,76.13
2018-07-14T22:48:50.359Z,76.38
2018-07-14T22:51:19.800Z,76.37
2018-07-14T22:53:49.233Z,76.37
2018-07-14T22:56:18.667Z,76.31
2018-07-14T22:58:48.119Z,76.88
2018-07-14T23:01:18.437Z,76.04
2018-07-14T23:03:48.215Z,76.37
2018-07-14T23:06:17.656Z,76.13
2018-07-14T23:08:47.140Z,76.28
2018-07-14T23:11:16.636Z,75.86
2018-07-14T23:13:46.034Z,75.87
2018-07-14T23:16:15.459Z,75.97
2018-07-14T23:18:44.897Z,75.72
2018-07-14T23:21:14.306Z,74.85
2018-07-14T23:23:43.760Z,75.39
2018-07-14T23:26:13.129Z,75.50
2018-07-14T23:28:42.535Z,75.80
2018-07-14T23:31:11.688Z,76.69
2018-07-14T23:33:41.092Z,76.20
2018-07-14T23:36:10.454Z,76.38
2018-07-14T23:38:39.911Z,76.59
2018-07-14T23:41:09.590Z,76.26
2018-07-14T23:43:39.423Z,76.70
2018-07-14T23:46:08.889Z,75.60
2018-07-14T23:48:38.616Z,76.63
2018-07-14T23:51:08.525Z,76.47
2018-07-14T23:53:37.995Z,76.36
2018-07-14T23:56:07.462Z,76.36
2018-07-14T23:58:36.899Z,77.13
